首页
METAR-TAF:

METAR-TAF

机场 :

Hernando County Airport

Brooksville, 佛罗里达州, 美国

纬度: 28-28-25N, 经度: 082-27-16W, 海拔: 23米

当前天气观测

该预报发布于35分钟前的07:53 UTC
静风
温度 23°C
湿度 94%
气压 1019 hPa
能見度: 16.1公里
天空无云

METAR: KBKV 190753Z AUTO 00000KT 10SM CLR 23/22 A3008 RMK AO2 SLP183 T02280222 $

时间: 04:28 (08:28 UTC)


TAF: 丢失

超过4000个机场的气象观测和天气预报(METAR&TAF报告)。

可查询的气象台以黄色和红色小点在地图上表示。

将鼠标移到小点上方,可查看气象台名称。

然后点击查看天气观测和预报。

如需切换地图:点击带黑十字的绿色按钮放大地图;点击带横线的绿色按钮缩小地图;或者点击绿色箭头查看邻近地区的地图。


METAR-TAF: